Time;durP1;ratioP1;P1;durP2;ratioP2;P2;SDS_P1;SDS_P2;PMS_P1;PMS_P2;Temp;Humidity;BMP_temperature;BMP_pressure;BME280_temperature;BME280_humidity;BME280_pressure;Samples;Min_cycle;Max_cycle;Signal;HPM_P1;HPM_P2
2022/04/26 03:36:09;;;;;;;12.30;5.82;;;;;;;7.65;91.17;101870.22;4978680;28;20062;-71
2022/04/26 03:38:41;;;;;;;10.77;5.97;;;;;;;7.66;92.04;101865.06;4980058;28;20050;-71
2022/04/26 03:41:09;;;;;;;15.57;6.25;;;;;;;7.62;92.51;101864.88;4979350;28;20141;-71
2022/04/26 03:43:38;;;;;;;12.13;5.43;;;;;;;7.59;92.92;101872.59;4980698;28;20483;-72
2022/04/26 03:46:07;;;;;;;15.02;6.65;;;;;;;7.62;93.60;101878.84;4981234;28;20050;-71
2022/04/26 03:48:38;;;;;;;13.60;6.68;;;;;;;7.61;93.78;101876.16;4980949;28;20108;-72
2022/04/26 03:51:07;;;;;;;13.73;6.30;;;;;;;7.61;94.34;101881.38;4981704;28;20142;-72
2022/04/26 03:53:35;;;;;;;10.88;6.78;;;;;;;7.57;95.10;101882.97;4980600;28;20108;-72
2022/04/26 03:56:04;;;;;;;17.40;6.38;;;;;;;7.61;95.00;101881.38;4976043;28;20129;-72
2022/04/26 03:58:33;;;;;;;11.05;6.07;;;;;;;7.57;95.22;101887.31;4977858;28;20038;-70
2022/04/26 04:01:01;;;;;;;14.57;7.45;;;;;;;7.60;95.44;101880.50;4981340;28;20109;-71
2022/04/26 04:03:29;;;;;;;13.57;6.50;;;;;;;7.47;95.66;101872.97;4978549;28;21051;-71
2022/04/26 04:05:57;;;;;;;17.38;7.25;;;;;;;7.49;96.02;101882.66;4980364;28;20120;-73
2022/04/26 04:08:27;;;;;;;12.18;7.28;;;;;;;7.53;95.94;101881.94;4978886;28;20137;-72
2022/04/26 04:10:56;;;;;;;14.60;8.02;;;;;;;7.46;96.13;101882.53;4977500;28;20098;-73
2022/04/26 04:13:24;;;;;;;14.52;7.30;;;;;;;7.44;96.16;101883.28;4981179;28;20149;-74
2022/04/26 04:15:56;;;;;;;17.05;8.10;;;;;;;7.40;96.46;101887.47;4977580;28;20046;-73
2022/04/26 04:21:10;;;;;;;16.73;8.68;;;;;;;7.40;96.54;101892.69;4980686;28;20120;-73
2022/04/26 04:23:40;;;;;;;13.27;7.78;;;;;;;7.34;96.87;101897.66;4979701;28;20125;-72
2022/04/26 04:26:08;;;;;;;14.93;7.82;;;;;;;7.32;96.89;101896.69;4980395;28;20162;-71
2022/04/26 04:28:37;;;;;;;14.30;7.45;;;;;;;7.30;97.20;101900.97;4979732;28;20042;-70
2022/04/26 04:31:08;;;;;;;12.57;7.40;;;;;;;7.33;97.21;101901.09;4981748;28;20065;-71
2022/04/26 04:33:36;;;;;;;13.38;7.80;;;;;;;7.27;97.34;101893.03;4977977;28;20526;-71
2022/04/26 04:36:04;;;;;;;14.55;8.40;;;;;;;7.27;97.07;101916.50;4981569;28;20967;-71
2022/04/26 04:38:33;;;;;;;15.30;8.13;;;;;;;7.24;97.50;101915.47;4981324;28;20050;-71
2022/04/26 04:41:03;;;;;;;21.23;10.02;;;;;;;7.20;97.46;101914.47;4980017;28;20448;-71
2022/04/26 04:43:31;;;;;;;17.38;8.80;;;;;;;7.22;97.48;101926.75;4978545;28;20054;-71
2022/04/26 04:45:59;;;;;;;20.02;8.20;;;;;;;7.23;97.29;101927.63;4982832;28;20050;-73
2022/04/26 04:48:27;;;;;;;16.65;7.85;;;;;;;7.23;97.33;101927.63;4979190;28;20073;-71
2022/04/26 04:50:56;;;;;;;17.50;9.07;;;;;;;7.15;97.70;101936.84;4981548;28;20046;-71
2022/04/26 04:53:27;;;;;;;15.85;7.90;;;;;;;7.16;97.36;101946.44;4980412;28;20604;-71
2022/04/26 04:55:58;;;;;;;14.93;8.07;;;;;;;7.11;97.55;101941.03;4976676;28;20078;-72
2022/04/26 04:58:32;;;;;;;17.30;8.05;;;;;;;7.08;97.73;101946.13;4979087;28;20140;-72
2022/04/26 05:01:00;;;;;;;16.05;7.60;;;;;;;7.12;97.09;101952.34;4981527;28;20057;-73
2022/04/26 05:03:29;;;;;;;19.23;8.45;;;;;;;7.04;97.32;101964.16;4981656;28;20132;-72
2022/04/26 05:05:58;;;;;;;14.55;7.80;;;;;;;6.98;97.43;101959.56;4980095;28;20049;-71
2022/04/26 05:08:27;;;;;;;13.95;7.97;;;;;;;7.00;97.36;101957.03;4982033;28;20050;-71
2022/04/26 05:10:55;;;;;;;18.60;8.32;;;;;;;6.94;97.62;101967.16;4980345;28;20053;-73
2022/04/26 05:13:23;;;;;;;15.27;8.10;;;;;;;6.89;97.98;101970.47;4980839;28;20058;-74
2022/04/26 05:15:58;;;;;;;16.52;8.00;;;;;;;6.90;97.84;101971.34;4980554;28;20474;-74
2022/04/26 05:18:29;;;;;;;20.77;8.52;;;;;;;6.92;97.77;101971.44;4982409;28;20046;-73
2022/04/26 05:21:00;;;;;;;16.52;7.53;;;;;;;6.88;97.98;101979.09;4983182;28;20054;-74
2022/04/26 05:26:21;;;;;;;13.95;7.25;;;;;;;6.93;98.29;101986.25;4981778;28;20050;-73
2022/04/26 05:28:51;;;;;;;16.45;7.50;;;;;;;6.99;97.97;101986.53;4979076;28;20236;-77
2022/04/26 05:31:22;;;;;;;15.80;7.53;;;;;;;6.91;98.28;101987.91;4977926;28;20136;-74
2022/04/26 05:33:50;;;;;;;17.42;7.57;;;;;;;6.80;98.60;101983.06;4979793;28;20054;-71
2022/04/26 05:36:21;;;;;;;14.82;6.95;;;;;;;6.79;98.81;101989.13;4982147;28;20130;-71
2022/04/26 05:38:49;;;;;;;16.23;8.60;;;;;;;6.81;99.22;101990.06;4982756;28;20050;-72
2022/04/26 05:41:19;;;;;;;16.05;7.93;;;;;;;6.84;98.76;101990.22;4982859;28;20073;-73
2022/04/26 05:43:49;;;;;;;18.70;7.55;;;;;;;6.82;98.99;101990.97;4986480;28;20108;-74
2022/04/26 05:46:19;;;;;;;16.00;8.68;;;;;;;6.88;98.51;101997.38;4989376;28;20049;-73
2022/04/26 05:48:50;;;;;;;14.23;7.85;;;;;;;6.91;98.59;102001.81;4990538;28;20081;-73
2022/04/26 05:51:23;;;;;;;17.88;8.07;;;;;;;6.90;98.71;102005.25;4988261;28;20514;-73
2022/04/26 05:53:51;;;;;;;14.98;7.90;;;;;;;6.89;99.36;101998.25;4991906;28;20116;-73
2022/04/26 05:56:20;;;;;;;16.60;7.55;;;;;;;6.88;99.12;102006.91;4991738;28;20129;-73
2022/04/26 05:58:51;;;;;;;14.77;7.60;;;;;;;6.99;98.65;101997.84;4991507;28;20093;-75
2022/04/26 06:01:20;;;;;;;14.50;7.72;;;;;;;6.99;98.42;102002.19;4989265;28;20070;-73
2022/04/26 06:03:51;;;;;;;18.35;7.97;;;;;;;6.98;98.54;101995.19;4988332;28;20201;-74
2022/04/26 06:06:20;;;;;;;15.48;7.20;;;;;;;7.08;98.23;102006.09;4989360;28;20069;-72
2022/04/26 06:08:49;;;;;;;13.65;7.07;;;;;;;7.17;97.96;102008.25;4985879;28;20042;-73
2022/04/26 06:11:20;;;;;;;13.73;7.60;;;;;;;7.16;97.75;102009.06;4987416;28;20120;-74
2022/04/26 06:13:51;;;;;;;15.60;7.68;;;;;;;7.33;97.43;102010.69;4984542;28;20054;-74
2022/04/26 06:16:20;;;;;;;18.17;7.60;;;;;;;7.34;96.93;102006.38;4983162;28;20081;-74
2022/04/26 06:18:51;;;;;;;15.82;8.30;;;;;;;7.36;97.09;102009.94;4980385;28;20055;-74
2022/04/26 06:21:19;;;;;;;14.00;7.60;;;;;;;7.40;96.52;102007.53;4983104;28;20359;-76
2022/04/26 06:23:51;;;;;;;16.38;7.82;;;;;;;7.60;95.47;102000.59;4979643;28;20056;-73
2022/04/26 06:26:22;;;;;;;14.98;7.53;;;;;;;7.65;95.18;102009.50;4979685;28;20578;-73
2022/04/26 06:28:50;;;;;;;14.25;7.03;;;;;;;7.85;95.27;102007.75;4982544;28;20054;-74
2022/04/26 06:31:21;;;;;;;20.35;7.53;;;;;;;7.72;94.49;102013.28;4978233;28;20050;-74
2022/04/26 06:33:51;;;;;;;13.45;6.72;;;;;;;8.19;93.12;102010.97;4981819;28;20051;-72
2022/04/26 06:36:22;;;;;;;14.57;7.18;;;;;;;8.55;91.19;102020.25;4978801;28;20081;-71
2022/04/26 06:38:50;;;;;;;13.35;6.90;;;;;;;8.29;90.74;102021.81;4978114;28;20081;-72
2022/04/26 06:41:20;;;;;;;15.20;7.68;;;;;;;8.40;91.39;102021.41;4976931;28;20046;-72
2022/04/26 06:43:51;;;;;;;14.25;7.13;;;;;;;8.91;89.67;102020.81;4979734;28;20100;-72
2022/04/26 06:46:20;;;;;;;13.27;6.45;;;;;;;9.25;87.99;102023.88;4982677;28;20049;-74
2022/04/26 06:48:52;;;;;;;26.50;6.70;;;;;;;9.35;86.18;102023.38;4982397;28;20050;-72
2022/04/26 06:51:26;;;;;;;15.00;6.35;;;;;;;9.33;84.85;102032.03;4985183;28;20056;-74
2022/04/26 06:53:57;;;;;;;12.23;5.75;;;;;;;9.62;83.30;102038.28;4983036;28;20158;-72
2022/04/26 06:56:25;;;;;;;11.40;5.60;;;;;;;9.72;83.05;102033.44;4981126;28;20418;-72
2022/04/26 06:58:58;;;;;;;13.75;6.82;;;;;;;9.83;81.84;102044.31;4984912;28;20074;-73
2022/04/26 07:01:44;;;;;;;15.43;6.13;;;;;;;10.16;81.34;102050.72;4984375;28;20055;-74
2022/04/26 07:04:25;;;;;;;17.92;6.30;;;;;;;10.42;80.40;102053.31;4979994;28;20113;-74
2022/04/26 07:06:53;;;;;;;10.52;5.80;;;;;;;10.37;79.27;102039.22;4978452;28;20144;-73
2022/04/26 07:09:22;;;;;;;12.07;5.75;;;;;;;10.67;79.63;102042.78;4981157;28;20034;-73
2022/04/26 07:11:51;;;;;;;14.48;6.25;;;;;;;10.68;77.82;102052.44;4979293;28;20217;-73
2022/04/26 07:14:21;;;;;;;10.82;5.22;;;;;;;10.43;77.74;102061.25;4982858;28;20049;-72
2022/04/26 07:16:50;;;;;;;11.73;5.65;;;;;;;10.36;76.99;102055.78;4980569;28;20577;-72
2022/04/26 07:19:28;;;;;;;15.70;5.80;;;;;;;10.31;77.64;102059.97;4981683;28;20474;-73
2022/04/26 07:22:00;;;;;;;13.05;5.63;;;;;;;10.05;77.62;102053.81;4969607;28;23126;-74
2022/04/26 07:24:32;;;;;;;11.80;5.35;;;;;;;10.18;78.05;102056.00;4979155;28;20052;-74
2022/04/26 07:27:01;;;;;;;13.02;5.90;;;;;;;10.37;75.89;102060.19;4981829;28;20057;-73
2022/04/26 07:29:30;;;;;;;15.10;5.68;;;;;;;10.62;75.38;102052.25;4981286;28;20152;-72
2022/04/26 07:31:59;;;;;;;12.75;5.53;;;;;;;10.69;75.08;102064.72;4982800;28;20038;-72
2022/04/26 07:34:27;;;;;;;14.13;6.38;;;;;;;11.27;73.74;102058.66;4980446;28;20046;-73
2022/04/26 07:37:02;;;;;;;12.93;6.15;;;;;;;11.52;71.89;102054.97;4977900;28;20097;-73
2022/04/26 07:39:33;;;;;;;11.40;6.05;;;;;;;11.75;70.81;102064.41;4980648;28;20088;-70
2022/04/26 07:42:03;;;;;;;15.15;6.05;;;;;;;11.28;70.59;102064.81;4984832;28;20065;-74
2022/04/26 07:44:33;;;;;;;13.13;6.00;;;;;;;11.35;70.56;102067.66;4984309;28;20054;-72
2022/04/26 07:47:02;;;;;;;11.30;6.80;;;;;;;11.12;70.54;102064.34;4980363;28;20137;-73
2022/04/26 07:49:31;;;;;;;13.23;6.30;;;;;;;11.32;70.97;102067.56;4983316;28;20042;-75
2022/04/26 07:52:00;;;;;;;12.38;6.35;;;;;;;10.77;70.96;102071.09;4982994;28;20061;-72
2022/04/26 07:54:28;;;;;;;12.38;6.10;;;;;;;11.12;70.63;102074.84;4982224;28;20050;-73
2022/04/26 07:56:56;;;;;;;14.15;5.70;;;;;;;11.54;68.71;102073.41;4975367;28;20097;-75
2022/04/26 07:59:28;;;;;;;12.90;6.55;;;;;;;11.96;66.71;102066.75;4981922;28;20100;-75
2022/04/26 08:02:00;;;;;;;13.82;6.10;;;;;;;12.31;66.74;102069.44;4981436;28;20137;-72
2022/04/26 08:04:28;;;;;;;11.77;6.55;;;;;;;12.28;65.42;102067.63;4981078;28;20446;-74
2022/04/26 08:07:04;;;;;;;12.55;6.65;;;;;;;12.55;65.16;102058.59;4981044;28;20081;-75
2022/04/26 08:09:35;;;;;;;11.18;6.00;;;;;;;12.49;62.33;102064.59;4983960;28;20056;-74
2022/04/26 08:12:04;;;;;;;12.52;5.63;;;;;;;12.90;61.63;102076.13;4978353;28;20132;-75
2022/04/26 08:14:35;;;;;;;12.20;5.78;;;;;;;12.38;60.17;102085.41;4984475;28;20042;-72
2022/04/26 08:17:04;;;;;;;13.77;6.38;;;;;;;12.58;60.06;102082.38;4982046;28;20151;-72
2022/04/26 08:19:34;;;;;;;12.68;6.00;;;;;;;12.42;60.10;102086.38;4980175;28;20057;-73
2022/04/26 08:22:05;;;;;;;10.63;5.72;;;;;;;12.90;60.17;102093.69;4981901;28;20049;-73
2022/04/26 08:27:26;;;;;;;11.25;5.30;;;;;;;13.11;57.00;102091.53;4976600;28;20047;-73
2022/04/26 08:30:04;;;;;;;9.43;5.47;;;;;;;13.13;57.19;102086.31;4977009;28;20046;-73
2022/04/26 08:32:39;;;;;;;10.27;5.78;;;;;;;13.55;55.66;102086.34;4984122;28;20125;-72
2022/04/26 08:35:08;;;;;;;12.00;5.90;;;;;;;13.50;55.26;102094.19;4982541;28;20491;-74
2022/04/26 08:37:38;;;;;;;9.77;5.28;;;;;;;13.26;56.90;102094.56;4985680;28;20065;-73
2022/04/26 08:40:11;;;;;;;12.07;5.65;;;;;;;13.84;54.79;102097.50;4983545;28;20062;-74
2022/04/26 08:42:41;;;;;;;11.53;6.30;;;;;;;14.01;55.05;102096.09;4985240;28;20458;-73
2022/04/26 08:45:16;;;;;;;13.00;6.85;;;;;;;13.61;56.27;102102.31;4982806;28;20054;-74
2022/04/26 08:53:30;;;;;;;13.18;5.70;;;;;;;14.34;54.58;102103.75;4987625;28;20149;-75
2022/04/26 08:56:01;;;;;;;12.02;6.00;;;;;;;14.59;52.55;102099.78;4984628;28;20050;-74
2022/04/26 08:58:31;;;;;;;10.55;5.38;;;;;;;14.71;52.18;102108.78;4984913;28;20097;-73
2022/04/26 09:01:10;;;;;;;10.48;5.47;;;;;;;14.95;52.62;102117.97;4981577;28;20080;-75
2022/04/26 09:03:54;;;;;;;12.65;6.20;;;;;;;14.21;51.70;102120.22;4982047;28;20097;-72
2022/04/26 09:06:39;;;;;;;10.93;5.22;;;;;;;14.43;51.25;102127.69;4979812;28;20181;-73
2022/04/26 09:09:21;;;;;;;10.70;5.45;;;;;;;14.63;51.37;102122.72;4983940;28;20064;-76
2022/04/26 09:11:51;;;;;;;8.77;5.07;;;;;;;14.88;50.28;102121.38;4981028;28;20053;-76
2022/04/26 09:14:38;;;;;;;8.52;4.90;;;;;;;15.18;50.26;102129.78;4981044;28;20054;-74
2022/04/26 09:17:10;;;;;;;10.45;4.75;;;;;;;14.82;49.41;102121.28;4983103;28;20054;-73
2022/04/26 09:19:52;;;;;;;9.60;4.75;;;;;;;14.46;49.74;102127.75;4987227;28;20058;-72
2022/04/26 09:22:26;;;;;;;8.30;4.68;;;;;;;13.24;49.20;102130.53;4984283;28;20051;-73
2022/04/26 09:25:02;;;;;;;12.63;4.40;;;;;;;13.15;49.90;102145.19;4982498;28;20069;-74
2022/04/26 09:27:32;;;;;;;10.82;4.68;;;;;;;12.81;51.70;102143.47;4982927;28;20055;-75
2022/04/26 09:30:00;;;;;;;10.70;4.90;;;;;;;13.39;51.14;102136.13;4984699;28;20042;-75
2022/04/26 09:32:44;;;;;;;11.77;4.60;;;;;;;14.17;49.25;102136.84;4980846;28;20231;-73
2022/04/26 09:35:20;;;;;;;8.25;4.30;;;;;;;14.67;48.82;102138.66;4980412;28;20545;-72
2022/04/26 09:37:51;;;;;;;7.68;3.83;;;;;;;15.16;46.65;102136.78;4976148;28;20065;-68
2022/04/26 09:40:29;;;;;;;9.98;4.22;;;;;;;15.16;47.69;102142.09;4978436;28;20058;-74
2022/04/26 09:43:00;;;;;;;8.75;4.00;;;;;;;15.11;47.49;102141.13;4980464;28;20058;-73
2022/04/26 09:45:28;;;;;;;8.20;3.67;;;;;;;14.97;45.25;102145.31;4977931;28;20152;-74
2022/04/26 09:47:59;;;;;;;6.45;3.75;;;;;;;13.69;48.63;102150.81;4981424;28;20154;-73
2022/04/26 09:50:28;;;;;;;7.30;3.85;;;;;;;13.92;48.25;102154.81;4979641;28;20542;-73
2022/04/26 09:52:59;;;;;;;9.20;4.25;;;;;;;13.63;48.50;102155.94;4982179;28;20553;-74
2022/04/26 09:55:30;;;;;;;9.15;4.40;;;;;;;13.56;49.03;102156.66;4980750;28;20124;-73
2022/04/26 09:57:59;;;;;;;8.45;4.80;;;;;;;13.97;49.70;102166.34;4977174;28;20050;-73
2022/04/26 10:00:28;;;;;;;7.68;4.43;;;;;;;14.48;47.69;102157.69;4981882;28;20523;-75
2022/04/26 10:03:08;;;;;;;5.72;3.50;;;;;;;14.46;47.15;102158.53;4979135;28;20142;-73
2022/04/26 10:05:40;;;;;;;8.07;4.45;;;;;;;15.17;46.69;102145.63;4984691;28;20086;-74
2022/04/26 10:08:09;;;;;;;8.68;4.47;;;;;;;15.52;45.61;102151.41;4984472;28;20046;-75
2022/04/26 10:10:41;;;;;;;8.07;4.05;;;;;;;15.69;44.76;102144.59;4981382;28;20053;-74
2022/04/26 10:15:59;;;;;;;14.00;5.57;;;;;;;15.02;49.67;102152.44;4978420;28;20515;-74
2022/04/26 10:18:30;;;;;;;11.20;5.20;;;;;;;14.90;51.49;102159.28;4979538;28;20142;-73
2022/04/26 10:20:59;;;;;;;11.48;5.28;;;;;;;13.93;51.86;102161.88;4981407;28;20108;-73
2022/04/26 10:23:27;;;;;;;10.90;5.20;;;;;;;13.15;53.76;102167.16;4974318;28;20054;-73
2022/04/26 10:26:27;;;;;;;11.13;4.95;;;;;;;13.12;52.91;102166.19;4975095;28;20065;-74
2022/04/26 10:28:59;;;;;;;10.98;4.70;;;;;;;12.94;53.13;102170.16;4977419;28;20047;-73
2022/04/26 10:31:40;;;;;;;8.60;4.50;;;;;;;13.46;50.62;102160.00;4981190;28;20050;-72
2022/04/26 10:34:30;;;;;;;10.93;4.72;;;;;;;13.31;48.42;102169.31;4981044;28;20077;-74
2022/04/26 10:37:01;;;;;;;7.82;4.72;;;;;;;14.24;45.26;102160.72;4981365;28;20133;-75
2022/04/26 10:39:37;;;;;;;10.10;3.97;;;;;;;14.82;45.18;102158.25;4983782;28;20517;-73
2022/04/26 10:42:28;;;;;;;8.30;3.97;;;;;;;15.64;44.27;102154.22;4980898;28;20053;-73
2022/04/26 10:45:07;;;;;;;11.13;5.40;;;;;;;15.36;46.47;102163.53;4984327;28;20053;-74
2022/04/26 10:47:39;;;;;;;9.65;4.80;;;;;;;14.64;47.61;102167.63;4983706;28;21424;-75
2022/04/26 10:50:08;;;;;;;7.45;4.60;;;;;;;14.59;48.39;102166.66;4985948;28;20050;-74
2022/04/26 10:52:47;;;;;;;10.55;4.53;;;;;;;15.20;47.67;102165.06;4982697;28;20046;-75
2022/04/26 10:55:28;;;;;;;9.52;4.38;;;;;;;14.93;46.67;102177.81;4981652;28;20046;-73
2022/04/26 10:58:02;;;;;;;10.13;4.72;;;;;;;14.70;47.43;102175.66;4982273;28;20050;-73
2022/04/26 11:00:37;;;;;;;9.93;5.15;;;;;;;14.86;48.66;102175.94;4985729;28;20054;-75
2022/04/26 11:03:09;;;;;;;10.80;4.75;;;;;;;14.98;49.03;102170.84;4982683;28;20161;-74
2022/04/26 11:05:39;;;;;;;10.13;5.05;;;;;;;15.81;46.88;102168.56;4983954;28;20101;-74
2022/04/26 11:08:09;;;;;;;10.52;5.22;;;;;;;14.49;50.59;102175.31;4984263;28;20058;-74
2022/04/26 11:13:35;;;;;;;8.73;5.10;;;;;;;13.30;53.54;102188.63;4982314;28;20505;-75
2022/04/26 11:16:12;;;;;;;9.82;5.18;;;;;;;12.31;56.26;102188.72;4982538;28;20054;-75
2022/04/26 11:18:45;;;;;;;9.77;5.18;;;;;;;12.33;57.17;102192.28;4980121;28;20054;-74
2022/04/26 11:21:15;;;;;;;11.55;5.50;;;;;;;12.57;57.21;102184.13;4983672;28;20506;-73
2022/04/26 11:29:27;;;;;;;8.90;5.18;;;;;;;12.50;57.48;102195.31;4980873;28;20105;-74
2022/04/26 11:31:59;;;;;;;12.15;5.32;;;;;;;13.06;56.44;102194.16;4981185;28;20121;-74
2022/04/26 11:34:43;;;;;;;13.70;6.00;;;;;;;12.56;57.33;102194.59;4980639;28;20050;-74
2022/04/26 11:37:15;;;;;;;9.20;5.63;;;;;;;12.62;57.50;102193.03;4984208;28;20058;-74
2022/04/26 11:39:44;;;;;;;10.93;5.63;;;;;;;12.64;56.95;102208.84;4982165;28;20137;-74
2022/04/26 11:42:15;;;;;;;9.00;4.80;;;;;;;12.30;57.90;102212.34;4983397;28;20046;-74
2022/04/26 11:45:04;;;;;;;9.68;5.30;;;;;;;13.23;56.59;102207.78;4984451;28;20069;-75
2022/04/26 11:47:44;;;;;;;11.05;5.30;;;;;;;13.47;53.95;102201.31;4982964;28;20050;-74
2022/04/26 11:50:20;;;;;;;6.85;4.40;;;;;;;12.72;53.95;102213.47;4983632;28;20062;-76
2022/04/26 11:52:53;;;;;;;9.60;4.78;;;;;;;12.96;52.85;102214.97;4985762;28;20054;-74
2022/04/26 11:55:29;;;;;;;10.48;5.03;;;;;;;13.44;52.27;102209.13;4983035;28;20050;-74
2022/04/26 11:58:12;;;;;;;9.27;4.28;;;;;;;13.19;49.11;102219.09;4982633;28;20057;-73
2022/04/26 12:00:59;;;;;;;7.85;3.92;;;;;;;12.91;48.10;102219.22;4983041;28;20124;-74
2022/04/26 12:03:30;;;;;;;6.35;3.53;;;;;;;12.37;47.21;102222.19;4982858;28;20146;-73
2022/04/26 12:06:01;;;;;;;7.53;3.92;;;;;;;13.13;48.21;102218.00;4982567;28;20486;-73
2022/04/26 12:08:36;;;;;;;7.25;3.80;;;;;;;13.18;46.68;102214.69;4984767;28;20682;-73
2022/04/26 12:11:15;;;;;;;9.18;4.05;;;;;;;13.38;47.22;102225.69;4983951;28;20050;-75
2022/04/26 12:13:48;;;;;;;8.45;3.85;;;;;;;13.36;47.38;102220.38;4979309;28;20052;-74
2022/04/26 12:16:23;;;;;;;8.27;4.15;;;;;;;13.55;48.24;102221.69;4979504;28;20059;-73
2022/04/26 12:18:55;;;;;;;8.00;4.00;;;;;;;13.35;48.35;102218.59;4983025;28;20046;-74
2022/04/26 12:21:27;;;;;;;9.13;3.60;;;;;;;13.25;49.04;102232.41;4984276;28;20085;-73
2022/04/26 12:24:12;;;;;;;6.07;3.90;;;;;;;13.74;48.13;102223.88;4983589;28;20078;-74
2022/04/26 12:26:54;;;;;;;8.05;3.65;;;;;;;13.37;46.80;102226.56;4982677;28;20061;-72
2022/04/26 12:29:27;;;;;;;6.47;3.30;;;;;;;13.59;47.81;102228.81;4982962;28;20475;-72
2022/04/26 12:32:00;;;;;;;6.97;3.53;;;;;;;13.23;46.76;102234.13;4987404;28;20058;-72
2022/04/26 12:34:30;;;;;;;6.38;3.75;;;;;;;13.95;46.50;102223.44;4984317;28;20049;-72
2022/04/26 12:37:01;;;;;;;7.15;4.00;;;;;;;13.56;45.58;102228.72;4985429;28;20372;-73
2022/04/26 12:39:41;;;;;;;7.95;3.75;;;;;;;13.43;45.36;102234.59;4987317;28;20584;-73
2022/04/26 12:42:10;;;;;;;6.97;3.50;;;;;;;13.32;46.03;102242.25;4984752;28;20050;-72
2022/04/26 12:44:50;;;;;;;5.78;3.55;;;;;;;13.00;47.44;102235.25;4987195;28;20043;-72
2022/04/26 12:50:31;;;;;;;9.27;3.40;;;;;;;12.93;48.96;102234.19;4985815;28;20054;-73
2022/04/26 12:53:08;;;;;;;7.88;3.40;;;;;;;12.86;48.52;102252.44;4988163;28;20122;-74
2022/04/26 12:55:37;;;;;;;8.82;3.72;;;;;;;13.04;49.25;102245.00;4983133;28;20046;-74
2022/04/26 12:58:07;;;;;;;7.97;4.05;;;;;;;13.16;48.88;102248.00;4984417;28;20042;-73
2022/04/26 13:00:39;;;;;;;6.78;3.55;;;;;;;13.91;45.66;102232.16;4984347;28;20054;-73
2022/04/26 13:03:10;;;;;;;6.22;3.58;;;;;;;13.26;48.58;102247.38;4979146;28;20080;-73
2022/04/26 13:05:41;;;;;;;6.63;3.58;;;;;;;13.07;50.21;102255.63;4981973;28;20342;-75
2022/04/26 13:08:11;;;;;;;7.57;3.40;;;;;;;12.64;51.02;102236.06;4982214;28;20050;-76
2022/04/26 13:10:40;;;;;;;9.02;4.50;;;;;;;13.14;50.43;102249.66;4981109;28;20089;-76
2022/04/26 13:13:09;;;;;;;8.85;3.80;;;;;;;12.93;50.48;102255.28;4982048;28;20046;-77
2022/04/26 13:15:37;;;;;;;8.95;4.05;;;;;;;13.31;49.59;102260.66;4980820;28;20054;-74
2022/04/26 13:18:06;;;;;;;8.70;3.83;;;;;;;13.09;50.97;102256.56;4983242;28;20539;-74
2022/04/26 13:20:36;;;;;;;8.70;4.22;;;;;;;13.56;50.98;102249.81;4975621;28;20049;-75
2022/04/26 13:23:11;;;;;;;8.50;3.78;;;;;;;12.61;52.67;102257.03;4980643;28;20046;-73
2022/04/26 13:25:40;;;;;;;7.93;4.22;;;;;;;12.96;52.69;102255.34;4979653;28;20058;-72
2022/04/26 13:28:09;;;;;;;8.77;4.75;;;;;;;12.98;51.82;102252.75;4979976;28;20052;-74
2022/04/26 13:30:38;;;;;;;9.70;4.70;;;;;;;13.28;51.67;102252.69;4981404;28;20046;-73
2022/04/26 13:33:08;;;;;;;7.60;4.10;;;;;;;13.26;52.52;102247.38;4977526;28;20038;-72
2022/04/26 13:35:38;;;;;;;10.35;4.70;;;;;;;13.02;51.78;102260.78;4977265;28;20050;-74
2022/04/26 13:38:09;;;;;;;12.00;4.30;;;;;;;12.97;51.76;102258.88;4980129;28;20050;-75
2022/04/26 13:40:38;;;;;;;10.40;4.55;;;;;;;12.38;51.98;102266.94;4974685;28;20054;-76
2022/04/26 13:43:09;;;;;;;7.47;4.10;;;;;;;12.94;51.56;102246.53;4978810;28;20057;-75
2022/04/26 13:45:39;;;;;;;9.77;4.57;;;;;;;13.35;50.93;102250.22;4982925;28;20065;-73
2022/04/26 13:48:12;;;;;;;7.38;4.32;;;;;;;13.39;51.72;102246.81;4980916;28;20053;-75
2022/04/26 13:50:42;;;;;;;9.52;4.00;;;;;;;12.88;52.70;102253.38;4980339;28;20514;-75
2022/04/26 13:53:10;;;;;;;9.27;4.05;;;;;;;12.76;52.28;102257.47;4977569;28;20084;-75
2022/04/26 13:55:38;;;;;;;7.72;3.83;;;;;;;12.99;51.70;102257.16;4974379;28;20050;-75
2022/04/26 13:58:09;;;;;;;6.55;3.85;;;;;;;12.34;52.01;102259.81;4980517;28;20081;-75
2022/04/26 14:00:37;;;;;;;7.22;4.38;;;;;;;12.56;52.45;102249.88;4982569;28;20059;-76
2022/04/26 14:03:08;;;;;;;11.85;4.95;;;;;;;12.90;52.43;102254.31;4976152;28;20055;-74
2022/04/26 14:05:36;;;;;;;8.05;4.57;;;;;;;12.69;51.95;102250.25;4978726;28;20066;-73
2022/04/26 14:08:09;;;;;;;7.75;4.53;;;;;;;12.88;51.25;102261.25;4983528;28;20050;-73
2022/04/26 14:10:37;;;;;;;7.93;3.75;;;;;;;12.26;52.45;102268.34;4983075;28;20050;-74
2022/04/26 14:13:06;;;;;;;7.93;4.30;;;;;;;12.58;53.70;102259.59;4976296;28;20367;-72
2022/04/26 14:24:04;;;;;;;9.23;4.00;;;;;;;14.00;51.55;102248.19;4979904;28;20543;-73
2022/04/26 14:26:34;;;;;;;9.40;4.53;;;;;;;13.53;50.20;102254.13;4981225;28;20058;-73
2022/04/26 14:29:02;;;;;;;7.93;3.70;;;;;;;13.06;48.66;102269.66;4983183;28;20054;-72
2022/04/26 14:31:30;;;;;;;9.77;4.10;;;;;;;12.67;50.50;102267.72;4984695;28;20053;-73
2022/04/26 14:33:59;;;;;;;7.70;4.13;;;;;;;12.76;52.93;102264.47;4982069;28;20158;-72
2022/04/26 14:36:27;;;;;;;8.38;5.03;;;;;;;13.28;52.04;102258.84;4979994;28;20088;-74
2022/04/26 14:39:19;;;;;;;9.48;4.20;;;;;;;13.12;51.19;102261.00;4981656;28;20869;-72
2022/04/26 14:41:51;;;;;;;9.07;4.30;;;;;;;12.80;51.48;102255.78;4981452;28;20058;-75
2022/04/26 14:44:21;;;;;;;9.05;4.38;;;;;;;12.38;52.04;102266.06;4981342;28;20082;-72
2022/04/26 14:46:49;;;;;;;7.32;4.13;;;;;;;12.46;52.02;102256.66;4984108;28;20565;-74
2022/04/26 14:49:20;;;;;;;7.22;4.10;;;;;;;12.61;52.79;102264.03;4981069;28;20046;-72
2022/04/26 14:51:49;;;;;;;9.43;4.40;;;;;;;12.70;50.65;102267.81;4982286;28;20085;-72
2022/04/26 14:54:18;;;;;;;8.10;3.85;;;;;;;12.57;49.92;102265.69;4983186;28;20057;-73
2022/04/26 14:56:47;;;;;;;11.63;4.63;;;;;;;12.50;51.37;102268.13;4985495;28;20101;-73
2022/04/26 14:59:19;;;;;;;8.05;4.13;;;;;;;12.71;52.39;102269.59;4980706;28;20491;-73
2022/04/26 15:01:49;;;;;;;7.97;4.53;;;;;;;12.85;51.79;102267.34;4982723;28;20073;-75
2022/04/26 15:04:23;;;;;;;10.10;4.43;;;;;;;12.03;53.45;102275.53;4982553;28;20046;-77
2022/04/26 15:06:51;;;;;;;7.03;4.13;;;;;;;12.50;52.81;102271.63;4981250;28;20730;-75
2022/04/26 15:17:52;;;;;;;8.40;4.32;;;;;;;12.28;54.40;102272.81;4984151;28;20052;-76
2022/04/26 15:20:20;;;;;;;8.93;4.40;;;;;;;12.21;54.25;102269.94;4986449;28;20128;-78
2022/04/26 15:22:52;;;;;;;9.98;4.85;;;;;;;11.90;54.79;102266.41;4982419;28;20057;-77
2022/04/26 15:25:22;;;;;;;10.68;4.55;;;;;;;11.96;55.71;102266.59;4985142;28;20562;-77
2022/04/26 15:27:50;;;;;;;11.65;5.32;;;;;;;11.89;56.62;102263.72;4983575;28;20100;-78
2022/04/26 15:30:21;;;;;;;12.10;5.05;;;;;;;12.06;56.48;102267.75;4985873;28;20057;-77
2022/04/26 15:32:54;;;;;;;13.43;5.05;;;;;;;12.52;54.80;102264.69;4981203;28;20047;-77
2022/04/26 15:35:28;;;;;;;7.55;4.35;;;;;;;12.96;53.47;102267.63;4985255;28;20192;-77
2022/04/26 15:38:02;;;;;;;7.85;4.32;;;;;;;12.53;53.23;102277.00;4984804;28;20054;-78
2022/04/26 15:40:31;;;;;;;7.55;4.05;;;;;;;11.93;55.11;102278.75;4982213;28;20046;-78
2022/04/26 15:42:59;;;;;;;8.50;4.72;;;;;;;11.90;55.28;102279.53;4987734;28;20039;-78
2022/04/26 15:45:28;;;;;;;8.60;4.57;;;;;;;11.71;55.27;102279.78;4984381;28;20066;-78
2022/04/26 15:48:00;;;;;;;9.13;4.30;;;;;;;11.47;55.72;102282.50;4986470;28;20061;-79
2022/04/26 15:50:30;;;;;;;9.95;5.13;;;;;;;11.86;55.76;102275.03;4985978;28;20050;-78
2022/04/26 15:52:58;;;;;;;10.40;5.15;;;;;;;11.60;57.02;102286.44;4991826;28;20070;-78
2022/04/26 15:55:31;;;;;;;11.95;6.10;;;;;;;11.52;58.49;102285.28;4991003;28;20050;-77
2022/04/26 15:58:00;;;;;;;10.07;5.03;;;;;;;11.47;58.85;102288.66;4992390;28;20054;-78
2022/04/26 16:00:28;;;;;;;9.57;4.68;;;;;;;11.60;59.08;102289.06;4989123;28;20110;-77
2022/04/26 16:03:01;;;;;;;9.25;5.03;;;;;;;11.74;58.21;102293.91;4989215;28;20208;-78